Time;durP1;ratioP1;P1;durP2;ratioP2;P2;SDS_P1;SDS_P2;PMS_P1;PMS_P2;Temp;Humidity;BMP_temperature;BMP_pressure;BME280_temperature;BME280_humidity;BME280_pressure;Samples;Min_cycle;Max_cycle;Signal;HPM_P1;HPM_P2
2021/05/18 00:00:05;;;;;;;1.20;0.70;;;11.30;32.10;;;;;;5093153;28;20536;-73
2021/05/18 00:02:31;;;;;;;2.73;1.07;;;11.10;31.90;;;;;;5073706;28;20419;-73
2021/05/18 00:04:57;;;;;;;1.20;0.60;;;11.10;33.90;;;;;;5074965;28;20513;-72
2021/05/18 00:07:23;;;;;;;2.10;1.17;;;11.00;34.30;;;;;;5092860;28;20234;-72
2021/05/18 00:12:35;;;;;;;1.40;0.97;;;10.90;36.20;;;;;;5092990;28;20442;-73
2021/05/18 00:15:06;;;;;;;1.20;0.60;;;10.80;36.70;;;;;;5092768;28;20427;-72
2021/05/18 00:17:32;;;;;;;2.00;1.00;;;10.80;36.90;;;;;;5074679;28;20412;-73
2021/05/18 00:19:58;;;;;;;2.50;0.80;;;10.70;36.80;;;;;;5074185;28;20458;-72
2021/05/18 00:22:23;;;;;;;1.50;0.80;;;10.60;37.70;;;;;;5092463;28;20217;-73
2021/05/18 00:24:49;;;;;;;1.30;0.73;;;10.60;37.50;;;;;;5092382;28;20194;-73
2021/05/18 00:27:19;;;;;;;1.83;0.90;;;10.60;37.90;;;;;;5092755;28;20576;-72
2021/05/18 00:29:44;;;;;;;1.90;0.73;;;10.60;38.30;;;;;;5091885;28;20607;-73
2021/05/18 00:32:10;;;;;;;1.83;0.87;;;10.60;39.00;;;;;;5092586;28;20491;-73
2021/05/18 00:34:36;;;;;;;3.73;1.00;;;10.60;39.40;;;;;;5092158;28;20206;-72
2021/05/18 00:37:01;;;;;;;1.27;0.73;;;10.60;40.30;;;;;;5091835;28;20593;-73
2021/05/18 00:39:27;;;;;;;1.33;0.70;;;10.60;40.30;;;;;;5092671;28;20299;-73
2021/05/18 00:41:52;;;;;;;1.90;0.97;;;10.60;40.40;;;;;;5073853;28;20253;-73
2021/05/18 00:44:18;;;;;;;1.43;0.70;;;10.60;40.30;;;;;;5091851;28;20282;-73
2021/05/18 00:46:43;;;;;;;1.10;0.60;;;10.60;40.50;;;;;;5073986;28;20729;-73
2021/05/18 00:49:09;;;;;;;1.57;0.90;;;10.50;40.50;;;;;;5091691;28;20176;-73
2021/05/18 00:51:38;;;;;;;1.43;0.80;;;10.50;40.90;;;;;;5091917;28;20628;-72
2021/05/18 00:54:07;;;;;;;1.20;0.50;;;10.50;41.10;;;;;;5073674;28;20208;-73
2021/05/18 00:59:05;;;;;;;1.50;0.83;;;10.40;41.70;;;;;;5091417;28;20452;-73
2021/05/18 01:01:32;;;;;;;1.23;0.73;;;10.40;41.60;;;;;;5091568;28;20443;-73
2021/05/18 01:03:59;;;;;;;1.60;0.80;;;10.40;41.60;;;;;;5091625;28;20822;-72
2021/05/18 01:06:29;;;;;;;1.30;0.70;;;;;;;;;;5091989;28;20415;-72
2021/05/18 01:09:00;;;;;;;1.77;0.90;;;10.50;40.60;;;;;;5092038;28;20403;-72
2021/05/18 01:11:28;;;;;;;1.30;0.47;;;10.50;41.30;;;;;;5080311;28;20426;-73
2021/05/18 01:14:03;;;;;;;1.20;0.70;;;10.50;41.70;;;;;;5111713;28;20455;-73
2021/05/18 01:16:33;;;;;;;1.20;0.60;;;10.50;40.40;;;;;;5112101;28;20425;-73
2021/05/18 01:18:59;;;;;;;1.40;0.80;;;10.50;40.20;;;;;;5111521;28;20834;-73
2021/05/18 01:21:25;;;;;;;1.20;0.60;;;10.60;40.40;;;;;;5093679;28;20415;-72
2021/05/18 01:23:52;;;;;;;1.30;0.50;;;10.60;40.10;;;;;;5093752;28;20646;-73
2021/05/18 01:26:18;;;;;;;1.10;0.50;;;10.60;40.60;;;;;;5111795;28;20462;-73
2021/05/18 01:28:44;;;;;;;1.20;0.60;;;10.60;40.00;;;;;;5111608;28;20414;-73
2021/05/18 01:31:12;;;;;;;1.10;0.50;;;10.60;40.50;;;;;;5111644;28;20173;-73
2021/05/18 01:33:38;;;;;;;1.53;0.83;;;10.60;39.90;;;;;;5111667;28;20854;-72
2021/05/18 01:36:07;;;;;;;1.20;0.70;;;10.70;40.00;;;;;;5111622;28;20485;-72
2021/05/18 01:38:43;;;;;;;4.37;0.80;;;;;;;;;;5111510;28;20439;-72
2021/05/18 01:43:55;;;;;;;2.50;1.10;;;10.70;39.50;;;;;;5112763;28;20847;-73
2021/05/18 01:46:24;;;;;;;1.80;0.80;;;10.70;39.40;;;;;;5093398;28;20434;-73
2021/05/18 01:49:03;;;;;;;1.70;0.60;;;10.80;38.70;;;;;;5111488;28;20425;-73
2021/05/18 01:51:55;;;;;;;1.37;0.70;;;10.80;38.20;;;;;;5111959;28;20496;-73
2021/05/18 01:54:29;;;;;;;1.30;0.80;;;10.80;38.10;;;;;;5112096;28;20440;-73
2021/05/18 01:59:26;;;;;;;2.13;0.80;;;10.90;38.80;;;;;;5111696;28;20556;-73
2021/05/18 02:01:55;;;;;;;1.40;0.90;;;10.90;39.10;;;;;;5111766;28;20441;-73
2021/05/18 02:04:22;;;;;;;1.30;0.70;;;10.90;39.60;;;;;;5111656;28;20447;-73
2021/05/18 02:06:48;;;;;;;4.50;0.93;;;11.00;39.10;;;;;;5112528;28;20419;-72
2021/05/18 02:09:14;;;;;;;1.30;0.97;;;11.00;40.10;;;;;;5111284;28;20462;-72
2021/05/18 02:11:40;;;;;;;1.40;0.70;;;11.00;40.40;;;;;;5111455;28;20799;-72
2021/05/18 02:14:08;;;;;;;1.60;0.87;;;11.10;40.20;;;;;;5112108;28;20426;-73
2021/05/18 02:16:38;;;;;;;1.57;0.80;;;11.00;42.30;;;;;;5111800;28;20169;-73
2021/05/18 02:21:43;;;;;;;1.33;0.90;;;10.80;42.00;;;;;;5112112;28;20446;-72
2021/05/18 02:26:53;;;;;;;1.77;0.80;;;10.40;44.20;;;;;;5116361;28;20460;-72
2021/05/18 02:29:19;;;;;;;1.57;1.03;;;10.30;45.30;;;;;;5115426;28;20411;-72
2021/05/18 02:31:45;;;;;;;1.50;0.90;;;10.30;45.90;;;;;;5114704;28;20180;-73
2021/05/18 02:34:11;;;;;;;1.13;0.70;;;10.20;46.60;;;;;;5096295;28;20702;-72
2021/05/18 02:36:36;;;;;;;2.43;0.83;;;10.20;46.60;;;;;;5114958;28;20440;-73
2021/05/18 02:39:04;;;;;;;1.90;0.87;;;10.10;47.70;;;;;;5114520;28;20536;-72
2021/05/18 02:41:30;;;;;;;1.87;0.90;;;10.00;47.70;;;;;;5114798;28;20547;-72
2021/05/18 02:44:10;;;;;;;1.30;0.87;;;;;;;;;;5115132;28;20428;-73
2021/05/18 02:49:22;;;;;;;2.50;0.80;;;9.90;50.80;;;;;;5114682;28;20411;-73
2021/05/18 02:51:48;;;;;;;1.80;1.00;;;9.90;51.30;;;;;;5114829;28;20416;-72
2021/05/18 02:54:17;;;;;;;1.40;0.80;;;9.90;51.50;;;;;;5096660;28;20452;-73
2021/05/18 02:57:04;;;;;;;1.40;0.90;;;10.00;49.10;;;;;;5114935;28;20408;-72
2021/05/18 02:59:30;;;;;;;1.93;1.00;;;10.00;49.10;;;;;;5114637;28;20456;-72
2021/05/18 03:01:58;;;;;;;1.20;0.67;;;10.00;49.30;;;;;;5114894;28;20497;-73
2021/05/18 03:04:25;;;;;;;1.57;0.70;;;10.10;49.50;;;;;;5115469;28;20226;-72
2021/05/18 03:06:50;;;;;;;2.57;1.17;;;10.10;49.20;;;;;;5114784;28;20786;-73
2021/05/18 03:09:17;;;;;;;1.67;0.50;;;10.10;49.30;;;;;;5114249;28;20417;-72
2021/05/18 03:11:45;;;;;;;1.10;0.60;;;10.10;49.30;;;;;;5096036;28;20190;-73
2021/05/18 03:14:12;;;;;;;1.30;0.80;;;10.10;48.70;;;;;;5113891;28;20509;-73
2021/05/18 03:16:40;;;;;;;1.30;0.70;;;10.10;49.00;;;;;;5114095;28;20979;-73
2021/05/18 03:19:07;;;;;;;1.20;0.70;;;10.10;49.00;;;;;;5113781;28;20449;-72
2021/05/18 03:21:33;;;;;;;1.77;0.97;;;10.00;49.40;;;;;;5114271;28;20469;-73
2021/05/18 03:23:59;;;;;;;1.57;0.70;;;10.00;49.50;;;;;;5114691;28;20826;-73
2021/05/18 03:26:26;;;;;;;1.30;0.80;;;10.10;49.70;;;;;;5114589;28;20216;-72
2021/05/18 03:28:58;;;;;;;1.00;0.50;;;10.00;49.90;;;;;;5096171;28;20431;-72
2021/05/18 03:36:54;;;;;;;1.20;0.80;;;10.00;50.70;;;;;;5114406;28;20414;-72
2021/05/18 03:39:19;;;;;;;1.00;0.57;;;9.90;51.60;;;;;;5114150;28;20562;-72
2021/05/18 03:41:59;;;;;;;1.17;0.60;;;9.90;51.80;;;;;;5114395;28;20479;-72
2021/05/18 03:52:28;;;;;;;2.00;0.73;;;9.80;50.00;;;;;;5114278;28;20439;-73
2021/05/18 04:03:02;;;;;;;1.57;0.80;;;;;;;;;;5114276;28;20409;-73
2021/05/18 04:11:03;;;;;;;2.20;0.77;;;10.00;48.70;;;;;;5113785;28;20190;-73
2021/05/18 04:19:03;;;;;;;1.40;0.80;;;10.20;48.50;;;;;;5113906;28;20286;-73
2021/05/18 04:53:33;;;;;;;1.50;0.93;;;10.80;45.30;;;;;;5112139;28;20421;-72
2021/05/18 05:08:58;;;;;;;3.63;0.93;;;11.00;44.70;;;;;;5091098;28;20498;-71
2021/05/18 05:16:33;;;;;;;4.13;1.40;;;11.00;45.40;;;;;;5092879;28;20563;-71
2021/05/18 05:18:59;;;;;;;2.00;0.93;;;11.00;45.90;;;;;;5090941;28;20944;-70
2021/05/18 05:21:29;;;;;;;2.70;0.90;;;11.00;44.70;;;;;;5090367;28;20247;-71
2021/05/18 05:23:55;;;;;;;1.50;0.83;;;11.00;44.60;;;;;;5072802;28;20175;-71
2021/05/18 05:26:21;;;;;;;1.87;1.03;;;11.00;43.80;;;;;;5091135;28;20419;-72
2021/05/18 05:28:46;;;;;;;3.37;0.90;;;11.00;43.10;;;;;;5091046;28;20182;-71
2021/05/18 05:31:12;;;;;;;1.97;1.00;;;11.10;43.70;;;;;;5091420;28;20261;-71
2021/05/18 05:33:37;;;;;;;1.17;0.67;;;11.10;43.40;;;;;;5093231;28;20180;-71
2021/05/18 05:36:03;;;;;;;1.30;0.70;;;11.10;43.50;;;;;;5073332;28;20200;-71
2021/05/18 05:38:30;;;;;;;1.57;0.87;;;11.10;43.80;;;;;;5098265;28;20187;-71
2021/05/18 05:40:56;;;;;;;1.30;0.70;;;11.10;44.20;;;;;;5099900;28;20408;-71
2021/05/18 05:43:22;;;;;;;1.67;1.00;;;11.20;44.10;;;;;;5111262;28;20905;-72
2021/05/18 05:45:50;;;;;;;1.83;0.90;;;11.10;42.50;;;;;;5095771;28;20433;-71
2021/05/18 05:48:18;;;;;;;1.30;0.57;;;11.10;42.70;;;;;;5090864;28;20603;-71
2021/05/18 05:50:43;;;;;;;1.20;0.60;;;11.00;42.90;;;;;;5090874;28;20781;-71
2021/05/18 05:53:09;;;;;;;1.50;0.67;;;10.90;42.10;;;;;;5090996;28;20458;-71
2021/05/18 05:55:35;;;;;;;1.20;0.70;;;10.90;41.40;;;;;;5072770;28;20213;-71
2021/05/18 05:58:00;;;;;;;1.87;0.83;;;10.90;41.90;;;;;;5107119;28;20182;-71
2021/05/18 06:00:26;;;;;;;1.20;0.67;;;10.90;42.10;;;;;;5112688;28;20240;-71
2021/05/18 06:02:51;;;;;;;2.90;1.23;;;10.80;42.30;;;;;;5096959;28;20177;-71
2021/05/18 06:05:17;;;;;;;1.50;0.80;;;10.90;42.10;;;;;;5096677;28;20213;-71
2021/05/18 06:07:42;;;;;;;1.60;0.80;;;10.90;42.10;;;;;;5115237;28;20195;-71
2021/05/18 06:10:30;;;;;;;1.53;0.80;;;11.00;42.20;;;;;;5114831;28;20190;-71
2021/05/18 06:16:13;;;;;;;1.30;0.70;;;11.20;43.90;;;;;;5094975;28;20466;-71
2021/05/18 06:42:41;;;;;;;3.80;0.73;;;11.50;40.20;;;;;;5115801;28;20419;-71
2021/05/18 06:47:52;;;;;;;1.27;0.60;;;11.30;39.10;;;;;;5105692;28;20392;-71
2021/05/18 06:50:31;;;;;;;2.10;1.00;;;11.10;40.90;;;;;;5099503;28;20411;-71
2021/05/18 06:52:57;;;;;;;3.57;0.87;;;11.10;40.80;;;;;;5095781;28;20657;-71
2021/05/18 06:55:27;;;;;;;1.57;0.67;;;11.10;42.30;;;;;;5093762;28;20477;-71
2021/05/18 06:58:00;;;;;;;1.67;0.90;;;11.20;42.40;;;;;;5076738;28;20188;-71
2021/05/18 07:00:25;;;;;;;1.50;0.80;;;11.30;42.50;;;;;;5108021;28;20467;-71
2021/05/18 07:02:52;;;;;;;1.93;0.77;;;11.50;40.90;;;;;;5099421;28;21004;-71
2021/05/18 07:08:09;;;;;;;2.33;0.63;;;11.90;40.70;;;;;;5093881;28;20411;-71
2021/05/18 07:10:35;;;;;;;1.20;0.67;;;12.00;38.30;;;;;;5106735;28;20433;-71
2021/05/18 07:13:00;;;;;;;1.67;0.60;;;12.00;37.90;;;;;;5100595;28;20439;-71
2021/05/18 07:15:27;;;;;;;1.30;0.80;;;12.00;38.30;;;;;;5096503;28;20208;-71
2021/05/18 07:17:52;;;;;;;1.70;0.67;;;12.10;38.00;;;;;;5093095;28;20183;-71
2021/05/18 07:20:20;;;;;;;1.73;0.80;;;12.00;37.40;;;;;;5098853;28;20465;-71
2021/05/18 07:22:45;;;;;;;1.67;0.70;;;12.00;38.00;;;;;;5114642;28;20541;-71
2021/05/18 07:25:11;;;;;;;1.40;0.67;;;12.00;38.60;;;;;;5084588;28;20528;-71
2021/05/18 07:27:37;;;;;;;3.67;0.80;;;12.10;39.60;;;;;;5106283;28;20701;-71
2021/05/18 07:30:03;;;;;;;1.20;0.50;;;12.10;38.20;;;;;;5105976;28;20212;-72
2021/05/18 07:32:29;;;;;;;1.10;0.53;;;12.30;38.20;;;;;;5070595;28;20185;-71
2021/05/18 07:34:55;;;;;;;1.40;0.50;;;12.30;38.30;;;;;;5089829;28;20439;-72
2021/05/18 07:37:22;;;;;;;1.10;0.60;;;12.40;37.40;;;;;;5071745;28;20193;-71
2021/05/18 07:39:48;;;;;;;1.97;0.80;;;12.30;36.40;;;;;;5089565;28;20459;-71
2021/05/18 07:42:13;;;;;;;1.20;0.50;;;12.20;36.60;;;;;;5109823;28;20426;-71
2021/05/18 07:44:39;;;;;;;1.77;0.70;;;12.00;38.30;;;;;;5109073;28;20425;-71
2021/05/18 07:47:04;;;;;;;1.20;0.50;;;11.90;38.40;;;;;;5107477;28;20185;-71
2021/05/18 07:49:37;;;;;;;1.60;0.87;;;11.90;39.10;;;;;;5109949;28;20198;-71
2021/05/18 08:05:28;;;;;;;1.40;0.70;;;12.00;38.60;;;;;;5089059;28;20556;-70
2021/05/18 08:07:54;;;;;;;1.30;0.70;;;12.20;37.70;;;;;;5087804;28;20841;-71
2021/05/18 08:10:23;;;;;;;1.30;0.73;;;12.60;36.70;;;;;;5088996;28;20438;-71
2021/05/18 08:12:49;;;;;;;7.77;1.20;;;12.90;35.20;;;;;;5092706;28;20523;-71
2021/05/18 10:22:08;;;;;;;2.33;2.13;;;15.80;23.20;;;;;;5102068;28;20919;-72
2021/05/18 10:38:18;;;;;;;2.43;1.30;;;15.00;26.60;;;;;;5115057;28;20499;-72
2021/05/18 10:40:44;;;;;;;1.40;1.10;;;15.30;28.30;;;;;;5106699;28;20474;-72
2021/05/18 10:43:37;;;;;;;1.50;1.03;;;15.60;30.40;;;;;;5094423;28;20752;-72
2021/05/18 10:46:11;;;;;;;3.47;1.60;;;15.80;28.90;;;;;;5090063;28;20216;-72
2021/05/18 10:48:39;;;;;;;2.50;1.23;;;15.80;27.50;;;;;;5113607;28;20476;-72
2021/05/18 10:51:23;;;;;;;5.00;1.70;;;15.90;28.80;;;;;;5115764;28;20714;-72
2021/05/18 10:54:16;;;;;;;2.03;1.50;;;16.00;25.70;;;;;;5113217;28;20442;-72
2021/05/18 10:56:54;;;;;;;2.63;1.97;;;16.00;25.40;;;;;;5078537;28;20424;-73
2021/05/18 10:59:24;;;;;;;2.20;2.00;;;16.00;22.80;;;;;;5095720;28;20458;-72
2021/05/18 11:02:00;;;;;;;2.50;2.30;;;15.80;21.40;;;;;;5094547;28;20790;-72
2021/05/18 11:04:28;;;;;;;2.50;2.30;;;15.60;20.70;;;;;;5117168;22;20455;-70
2021/05/18 11:06:59;;;;;;;2.07;1.70;;;15.70;21.60;;;;;;5053042;28;20468;-71
2021/05/18 11:09:26;;;;;;;2.03;1.93;;;15.90;22.40;;;;;;5053418;28;20563;-71
2021/05/18 11:12:01;;;;;;;2.20;2.00;;;16.10;20.20;;;;;;5053512;28;20434;-70
2021/05/18 11:14:39;;;;;;;1.90;1.80;;;16.00;20.90;;;;;;5053231;28;20401;-70
2021/05/18 11:17:22;;;;;;;3.00;2.80;;;16.20;21.80;;;;;;5064486;28;20423;-70
2021/05/18 11:19:58;;;;;;;2.07;1.97;;;16.30;20.30;;;;;;5070968;28;20479;-69
2021/05/18 11:25:10;;;;;;;2.77;2.57;;;16.10;19.50;;;;;;5073837;28;20484;-70
2021/05/18 11:27:36;;;;;;;6.33;3.40;;;15.80;19.90;;;;;;5057757;28;20424;-70
2021/05/18 11:30:05;;;;;;;2.33;2.10;;;16.00;19.80;;;;;;5053351;28;20421;-69
2021/05/18 11:32:30;;;;;;;2.83;2.63;;;16.10;21.50;;;;;;5053355;28;20417;-70
2021/05/18 11:34:58;;;;;;;9.70;3.23;;;16.10;21.90;;;;;;5050799;28;20501;-72
2021/05/18 11:37:26;;;;;;;3.20;3.00;;;16.20;18.30;;;;;;5053885;28;20205;-71
2021/05/18 11:40:08;;;;;;;2.80;2.60;;;16.30;18.90;;;;;;5063974;28;20474;-70
2021/05/18 11:42:34;;;;;;;2.47;2.33;;;16.20;20.30;;;;;;5035060;28;20424;-71
2021/05/18 11:45:13;;;;;;;3.73;3.40;;;16.30;19.70;;;;;;5053056;28;20497;-70
2021/05/18 11:47:40;;;;;;;3.20;3.00;;;16.30;17.70;;;;;;5055044;28;20248;-69
2021/05/18 11:50:06;;;;;;;3.00;2.80;;;16.30;17.90;;;;;;5067851;28;20451;-71
2021/05/18 11:52:36;;;;;;;4.03;3.80;;;16.40;18.50;;;;;;5062424;28;20424;-71
2021/05/18 11:55:18;;;;;;;3.40;3.20;;;16.50;17.00;;;;;;5057670;28;20891;-72
2021/05/18 11:57:44;;;;;;;3.90;3.70;;;16.90;18.10;;;;;;5071416;28;20420;-71
2021/05/18 12:00:27;;;;;;;5.00;4.47;;;17.10;16.70;;;;;;5057672;28;20802;-70
2021/05/18 12:03:05;;;;;;;4.60;4.30;;;17.00;16.10;;;;;;5035139;28;20178;-70
2021/05/18 12:05:31;;;;;;;4.60;4.30;;;16.70;14.20;;;;;;5052922;28;20515;-72
2021/05/18 12:07:57;;;;;;;4.60;4.40;;;;;;;;;;5055440;28;20466;-72
2021/05/18 12:10:27;;;;;;;4.00;3.80;;;;;;;;;;5072262;28;20408;-71
2021/05/18 12:12:53;;;;;;;4.87;4.67;;;16.30;14.90;;;;;;5053385;28;20445;-74
2021/05/18 12:15:19;;;;;;;4.67;4.47;;;;;;;;;;5068107;28;20440;-71
2021/05/18 12:17:45;;;;;;;4.77;4.57;;;;;;;;;;5051100;28;20187;-69
2021/05/18 12:20:16;;;;;;;4.37;4.17;;;;;;;;;;5067642;28;20824;-69
2021/05/18 12:22:42;;;;;;;5.37;5.03;;;;;;;;;;5054559;28;20431;-70
2021/05/18 12:25:09;;;;;;;4.20;4.00;;;;;;;;;;5068404;28;20519;-69
2021/05/18 12:27:45;;;;;;;4.23;3.90;;;;;;;;;;5064906;28;20488;-69
2021/05/18 12:30:11;;;;;;;4.60;4.40;;;;;;;;;;5051108;28;20439;-69
2021/05/18 12:32:46;;;;;;;4.33;4.13;;;;;;;;;;5057884;28;20481;-70
2021/05/18 12:35:24;;;;;;;4.30;4.10;;;;;;;;;;5055138;28;20486;-70
2021/05/18 12:37:52;;;;;;;5.23;5.03;;;;;;;;;;5047625;28;20427;-71
2021/05/18 12:40:31;;;;;;;5.80;5.50;;;;;;;;;;5032489;28;20470;-70
2021/05/18 12:43:26;;;;;;;7.13;5.33;;;;;;;;;;5049770;28;20438;-73
2021/05/18 12:46:07;;;;;;;6.30;6.00;;;;;;;;;;5068363;28;20530;-71
2021/05/18 12:48:38;;;;;;;5.63;5.33;;;15.30;14.80;;;;;;5069376;28;20419;-69
2021/05/18 12:51:21;;;;;;;5.83;5.53;;;16.20;14.80;;;;;;5066755;28;20461;-69
2021/05/18 12:53:47;;;;;;;6.10;5.80;;;16.20;15.70;;;;;;5046299;28;20423;-69
2021/05/18 12:56:27;;;;;;;6.00;5.70;;;16.30;14.20;;;;;;5058278;28;20521;-72
2021/05/18 12:59:03;;;;;;;10.37;6.10;;;16.60;14.20;;;;;;5067315;28;20231;-72
2021/05/18 13:01:39;;;;;;;5.97;5.67;;;16.80;14.70;;;;;;5062566;28;20432;-71
2021/05/18 13:04:09;;;;;;;6.10;5.80;;;16.90;15.50;;;;;;5067014;28;20473;-73
2021/05/18 13:06:43;;;;;;;5.50;5.30;;;17.10;15.50;;;;;;5051634;28;20460;-70
2021/05/18 13:09:25;;;;;;;5.80;5.50;;;17.10;14.60;;;;;;5052011;28;20425;-70
2021/05/18 13:12:13;;;;;;;5.47;5.27;;;16.90;15.90;;;;;;5051950;28;20452;-70
2021/05/18 13:14:58;;;;;;;4.87;4.67;;;16.90;15.80;;;;;;5069123;28;20452;-70
2021/05/18 13:17:28;;;;;;;5.73;5.43;;;;;;;;;;5065196;28;20427;-71
2021/05/18 13:20:02;;;;;;;5.43;5.03;;;;;;;;;;5069902;28;20470;-71
2021/05/18 13:22:30;;;;;;;5.40;5.10;;;;;;;;;;5051489;28;20410;-70
2021/05/18 13:27:38;;;;;;;5.70;5.50;;;;;;;;;;5071035;28;20428;-68
2021/05/18 13:30:05;;;;;;;5.47;5.20;;;;;;;;;;5070554;28;20444;-70
2021/05/18 13:32:31;;;;;;;4.77;4.57;;;;;;;;;;5055277;28;20643;-69
2021/05/18 13:34:57;;;;;;;5.90;5.60;;;;;;;;;;5071034;28;20435;-69
2021/05/18 13:37:23;;;;;;;5.80;5.60;;;;;;;;;;5053232;28;20850;-69
2021/05/18 13:39:49;;;;;;;6.13;5.83;;;;;;;;;;5071017;28;20584;-69
2021/05/18 13:42:15;;;;;;;5.93;5.73;;;;;;;;;;5053604;28;20731;-69
2021/05/18 13:44:41;;;;;;;6.23;5.90;;;;;;;;;;5060299;28;20447;-69
2021/05/18 13:47:07;;;;;;;6.10;5.90;;;;;;;;;;5052952;28;20420;-69
2021/05/18 13:49:33;;;;;;;6.30;6.10;;;;;;;;;;5052900;28;20468;-70
2021/05/18 13:51:59;;;;;;;5.97;5.77;;;;;;;;;;5056058;28;20794;-70
2021/05/18 13:54:25;;;;;;;6.10;5.90;;;;;;;;;;5050990;28;20413;-69
2021/05/18 13:56:50;;;;;;;6.07;5.77;;;;;;;;;;5032654;28;20466;-71
2021/05/18 13:59:16;;;;;;;5.90;5.70;;;;;;;;;;5032697;28;20472;-70
2021/05/18 14:01:42;;;;;;;6.33;6.03;;;;;;;;;;5033136;28;20504;-69
2021/05/18 14:04:08;;;;;;;6.50;6.20;;;16.80;15.80;;;;;;5050720;28;20498;-70
2021/05/18 14:06:35;;;;;;;7.10;6.43;;;17.40;12.00;;;;;;5051018;28;20454;-70
2021/05/18 14:09:00;;;;;;;6.13;5.83;;;17.30;13.80;;;;;;5050260;28;20179;-69
2021/05/18 14:11:26;;;;;;;5.77;5.53;;;17.30;14.30;;;;;;5051195;28;20471;-69
2021/05/18 14:13:54;;;;;;;5.80;5.60;;;17.30;14.70;;;;;;5062296;28;20236;-71
2021/05/18 14:16:23;;;;;;;5.70;5.50;;;17.50;15.30;;;;;;5069965;28;20237;-70
2021/05/18 14:18:54;;;;;;;5.90;5.70;;;17.60;14.40;;;;;;5070712;28;20415;-71
2021/05/18 14:21:22;;;;;;;6.70;6.20;;;17.50;14.80;;;;;;5072463;28;20431;-69
2021/05/18 14:26:19;;;;;;;6.40;6.20;;;17.60;14.30;;;;;;5061577;28;20510;-70
2021/05/18 14:28:45;;;;;;;6.50;6.30;;;;;;;;;;5053921;28;20420;-72
2021/05/18 14:31:12;;;;;;;7.00;6.70;;;;;;;;;;5053571;28;20800;-69
2021/05/18 14:33:39;;;;;;;7.60;6.90;;;;;;;;;;5061458;28;20430;-70
2021/05/18 14:36:06;;;;;;;6.73;6.43;;;;;;;;;;5072255;28;20778;-69
2021/05/18 14:38:32;;;;;;;6.60;6.30;;;;;;;;;;5073201;28;20431;-69
2021/05/18 14:43:58;;;;;;;7.30;6.90;;;;;;;;;;5074129;28;20419;-69
2021/05/18 14:56:46;;;;;;;7.07;6.57;;;16.40;15.20;;;;;;5053483;28;20416;-71
2021/05/18 14:59:11;;;;;;;5.73;5.53;;;16.30;17.00;;;;;;5053996;28;21035;-70
2021/05/18 15:01:37;;;;;;;6.30;6.07;;;16.30;18.00;;;;;;5054719;28;20252;-69
2021/05/18 15:04:02;;;;;;;6.67;6.37;;;16.30;17.30;;;;;;5038877;28;20204;-69
2021/05/18 15:06:31;;;;;;;6.90;6.60;;;16.30;16.90;;;;;;5053895;28;20216;-72
2021/05/18 15:08:56;;;;;;;6.30;6.00;;;16.40;16.80;;;;;;5053408;28;20166;-69
2021/05/18 15:11:22;;;;;;;6.03;5.73;;;16.70;16.40;;;;;;5070386;28;20417;-74
2021/05/18 15:13:48;;;;;;;7.23;6.93;;;17.00;16.70;;;;;;5073233;28;20189;-69
2021/05/18 15:16:13;;;;;;;7.70;7.30;;;17.10;14.10;;;;;;5064643;28;20570;-69
2021/05/18 15:18:39;;;;;;;7.57;7.27;;;17.30;14.20;;;;;;5054249;28;20420;-71
2021/05/18 15:21:04;;;;;;;8.00;7.40;;;17.30;14.70;;;;;;5054424;28;20206;-69
2021/05/18 15:23:30;;;;;;;8.00;7.43;;;17.30;13.60;;;;;;5036106;28;20189;-70
2021/05/18 15:25:57;;;;;;;8.10;7.50;;;17.20;13.20;;;;;;5055859;28;20282;-69
2021/05/18 15:28:22;;;;;;;7.50;7.20;;;17.20;13.20;;;;;;5074774;28;20182;-70
2021/05/18 15:30:48;;;;;;;8.00;7.70;;;17.40;13.60;;;;;;5081599;28;20423;-68
2021/05/18 15:33:14;;;;;;;8.53;8.23;;;17.40;11.00;;;;;;5063673;28;20239;-70
2021/05/18 15:35:39;;;;;;;8.30;8.00;;;17.20;10.60;;;;;;5082019;28;20236;-70
2021/05/18 15:38:06;;;;;;;8.03;7.73;;;16.90;16.90;;;;;;5078160;28;20182;-71
2021/05/18 15:40:32;;;;;;;8.67;8.17;;;16.60;11.70;;;;;;5061242;28;20237;-71
2021/05/18 15:42:57;;;;;;;8.70;8.30;;;16.30;12.20;;;;;;5063507;28;20479;-69
2021/05/18 15:45:23;;;;;;;7.70;7.37;;;16.00;12.60;;;;;;5062234;28;20263;-70
2021/05/18 15:47:48;;;;;;;7.17;6.87;;;15.80;13.00;;;;;;5062880;28;20240;-70
2021/05/18 15:50:15;;;;;;;8.43;7.07;;;15.70;13.60;;;;;;5063230;28;20216;-73
2021/05/18 15:52:41;;;;;;;7.60;7.30;;;15.70;13.60;;;;;;5080988;28;20193;-71
2021/05/18 15:55:07;;;;;;;6.97;6.67;;;15.70;14.10;;;;;;5081861;28;20497;-72
2021/05/18 15:57:33;;;;;;;7.50;7.10;;;15.60;14.20;;;;;;5081591;28;20477;-71
2021/05/18 15:59:59;;;;;;;7.77;7.30;;;15.50;13.90;;;;;;5081243;28;20470;-71
2021/05/18 16:02:24;;;;;;;7.23;6.87;;;15.60;15.20;;;;;;5081093;28;20205;-71
2021/05/18 16:04:50;;;;;;;7.87;7.47;;;;;;;;;;5080751;28;20275;-71
2021/05/18 16:07:18;;;;;;;7.47;7.13;;;15.50;15.10;;;;;;5081667;28;20250;-72
2021/05/18 16:09:43;;;;;;;6.30;6.10;;;15.30;15.10;;;;;;5080936;28;20452;-70
2021/05/18 16:12:10;;;;;;;6.53;6.23;;;15.30;16.50;;;;;;5072897;28;20444;-70
2021/05/18 16:14:37;;;;;;;6.67;6.37;;;15.30;16.60;;;;;;5078827;28;20192;-71
2021/05/18 16:17:03;;;;;;;6.90;6.60;;;15.40;16.40;;;;;;5061691;28;20447;-71
2021/05/18 16:19:29;;;;;;;7.27;6.87;;;15.50;17.20;;;;;;5061656;28;20469;-70
2021/05/18 16:21:55;;;;;;;6.67;6.40;;;15.40;17.30;;;;;;5060452;28;20502;-70
2021/05/18 16:24:22;;;;;;;7.00;6.70;;;15.30;16.90;;;;;;5075186;28;20242;-71
2021/05/18 16:26:49;;;;;;;7.00;6.70;;;15.10;17.60;;;;;;5080120;28;20640;-70
2021/05/18 16:29:14;;;;;;;7.00;6.70;;;14.90;15.90;;;;;;5079869;28;20422;-71
2021/05/18 16:31:40;;;;;;;6.93;6.63;;;14.80;16.70;;;;;;5080335;28;20419;-69
2021/05/18 16:34:05;;;;;;;7.20;6.90;;;14.60;16.60;;;;;;5050482;28;20195;-71
2021/05/18 16:36:31;;;;;;;6.83;6.53;;;14.50;16.40;;;;;;5061087;28;20204;-70
2021/05/18 16:38:57;;;;;;;6.70;6.40;;;14.40;16.50;;;;;;5059846;28;20547;-70
2021/05/18 16:41:24;;;;;;;6.60;6.30;;;14.30;17.00;;;;;;5065111;28;20426;-70
2021/05/18 16:43:49;;;;;;;5.30;5.10;;;14.30;17.00;;;;;;5060877;28;20175;-70
2021/05/18 16:46:15;;;;;;;6.07;5.77;;;14.40;17.30;;;;;;5075030;28;20530;-71
2021/05/18 16:48:41;;;;;;;6.60;6.30;;;14.40;17.30;;;;;;5060640;28;20174;-72
2021/05/18 16:51:09;;;;;;;6.70;6.40;;;14.40;17.60;;;;;;5066863;28;20185;-70
2021/05/18 16:53:36;;;;;;;6.47;6.17;;;14.40;16.80;;;;;;5066137;28;20239;-70
2021/05/18 16:56:04;;;;;;;6.30;6.00;;;14.30;16.60;;;;;;5055757;28;20438;-73
2021/05/18 16:58:29;;;;;;;5.97;5.67;;;14.30;17.00;;;;;;5074405;28;20758;-71
2021/05/18 17:00:55;;;;;;;6.40;6.10;;;14.40;17.10;;;;;;5062037;28;20515;-68
2021/05/18 17:03:21;;;;;;;5.67;5.47;;;14.40;17.00;;;;;;5054340;28;20180;-69
2021/05/18 17:05:46;;;;;;;6.40;6.10;;;14.40;16.90;;;;;;5092173;22;20317;-74
2021/05/18 17:08:12;;;;;;;7.00;6.60;;;14.30;17.00;;;;;;5095462;28;20176;-74
2021/05/18 17:10:40;;;;;;;6.60;6.30;;;14.30;17.00;;;;;;5112828;28;20182;-73
2021/05/18 17:13:06;;;;;;;7.37;6.87;;;14.30;17.00;;;;;;5107115;28;20209;-73
2021/05/18 17:15:32;;;;;;;7.43;6.30;;;14.40;17.10;;;;;;5092918;28;20431;-74
2021/05/18 17:17:59;;;;;;;6.10;5.70;;;14.40;17.10;;;;;;5092580;28;20415;-73
2021/05/18 17:20:26;;;;;;;6.27;6.07;;;14.40;17.10;;;;;;5093032;28;20867;-73
2021/05/18 17:22:53;;;;;;;8.37;7.00;;;14.50;17.20;;;;;;5093323;28;20429;-74
2021/05/18 17:25:19;;;;;;;6.90;6.60;;;14.30;17.00;;;;;;5105043;28;20524;-72
2021/05/18 17:27:45;;;;;;;7.23;6.93;;;14.30;17.10;;;;;;5112056;27;20419;-72
2021/05/18 17:30:13;;;;;;;7.20;6.90;;;14.20;17.00;;;;;;5120820;27;20441;-72
2021/05/18 17:32:39;;;;;;;6.83;6.50;;;14.00;16.80;;;;;;5096972;28;20233;-71
2021/05/18 17:35:07;;;;;;;6.33;6.03;;;14.00;17.80;;;;;;5090785;28;21012;-70
2021/05/18 17:37:32;;;;;;;6.73;6.23;;;14.00;17.40;;;;;;5095445;28;20268;-72
2021/05/18 17:39:58;;;;;;;6.73;6.33;;;13.90;18.00;;;;;;5103533;28;21055;-71
2021/05/18 17:42:24;;;;;;;6.07;5.77;;;13.80;18.10;;;;;;5115122;28;20180;-73
2021/05/18 17:44:51;;;;;;;6.60;6.30;;;13.80;18.50;;;;;;5114708;28;20424;-73
2021/05/18 17:47:17;;;;;;;5.87;5.67;;;13.80;18.80;;;;;;5094874;28;20188;-73
2021/05/18 17:49:43;;;;;;;6.03;5.70;;;13.70;18.70;;;;;;5113359;28;20425;-72
2021/05/18 17:52:10;;;;;;;5.90;5.70;;;;;;;;;;5113861;28;20192;-73
2021/05/18 17:54:37;;;;;;;5.50;5.30;;;;;;;;;;5113319;28;20185;-72
2021/05/18 17:57:03;;;;;;;5.90;5.70;;;;;;;;;;5117491;28;20521;-73
2021/05/18 17:59:29;;;;;;;6.30;6.00;;;;;;;;;;5118165;28;20966;-72
2021/05/18 18:01:55;;;;;;;6.33;5.93;;;;;;;;;;5118555;28;20430;-72
2021/05/18 18:04:22;;;;;;;5.87;5.57;;;;;;;;;;5098964;28;20528;-72
2021/05/18 18:06:50;;;;;;;6.23;5.20;;;;;;;;;;5116234;28;20455;-72
2021/05/18 18:09:16;;;;;;;5.57;5.27;;;;;;;;;;5099926;28;20520;-73
2021/05/18 18:11:42;;;;;;;5.30;5.10;;;;;;;;;;5107495;28;20500;-72
2021/05/18 18:14:08;;;;;;;5.00;4.80;;;13.50;18.10;;;;;;5098713;28;20420;-72
2021/05/18 18:16:37;;;;;;;4.13;3.93;;;13.10;20.70;;;;;;5091015;28;20442;-73
2021/05/18 18:19:04;;;;;;;4.33;4.03;;;13.10;21.50;;;;;;5117406;28;20273;-72